Time;durP1;ratioP1;P1;durP2;ratioP2;P2;SDS_P1;SDS_P2;PMS_P1;PMS_P2;Temp;Humidity;BMP_temperature;BMP_pressure;BME280_temperature;BME280_humidity;BME280_pressure;Samples;Min_cycle;Max_cycle;Signal;HPM_P1;HPM_P2
2022/04/22 00:01:29;;;;;;;;;6.33;5.00;;;;;18.29;35.43;100035.25;5080351;27;45524;-82
2022/04/22 00:03:55;;;;;;;;;6.33;6.33;;;;;18.63;35.73;100091.66;5080354;27;45462;-82
2022/04/22 00:06:20;;;;;;;;;6.00;4.67;;;;;18.61;35.91;100083.69;5077674;27;45298;-82
2022/04/22 00:08:46;;;;;;;;;4.00;3.00;;;;;18.59;35.97;100082.13;5097633;27;45343;-82
2022/04/22 00:11:29;;;;;;;;;8.67;5.67;;;;;18.56;35.90;100088.63;5098362;27;45372;-82
2022/04/22 00:13:59;;;;;;;;;4.67;4.67;;;;;18.35;36.29;100062.56;5083612;27;45500;-83
2022/04/22 00:16:26;;;;;;;;;6.00;5.00;;;;;18.32;35.87;100051.19;5095743;27;45472;-82
2022/04/22 00:18:51;;;;;;;;;7.00;6.00;;;;;18.48;36.44;100080.38;5097656;27;45451;-82
2022/04/22 00:21:17;;;;;;;;;4.33;3.00;;;;;18.36;36.50;100066.13;5100431;27;45387;-82
2022/04/22 00:23:42;;;;;;;;;6.33;5.00;;;;;18.45;36.76;100084.19;5081449;27;45433;-82
2022/04/22 00:26:08;;;;;;;;;4.00;4.00;;;;;18.25;36.50;100056.25;5101219;27;45402;-82
2022/04/22 00:28:34;;;;;;;;;4.33;4.33;;;;;18.14;36.59;100041.00;5082245;27;45384;-82
2022/04/22 00:30:59;;;;;;;;;7.33;5.67;;;;;18.08;36.75;100028.03;5096414;27;45506;-82
2022/04/22 00:33:24;;;;;;;;;4.00;4.00;;;;;18.07;36.84;100031.72;5080571;28;46129;-82
2022/04/22 00:35:50;;;;;;;;;6.67;6.67;;;;;18.33;36.74;100074.44;5090707;27;45461;-82
2022/04/22 00:38:15;;;;;;;;;9.67;5.00;;;;;18.07;36.73;100038.97;5082310;27;45736;-83
2022/04/22 00:40:42;;;;;;;;;3.67;3.00;;;;;17.87;36.97;100008.34;5101417;27;45377;-82
2022/04/22 00:43:44;;;;;;;;;4.67;4.00;;;;;18.19;37.18;100069.41;5082021;27;47356;-82
2022/04/22 00:46:10;;;;;;;;;7.00;7.00;;;;;18.17;37.61;100074.94;5100355;27;45547;-82
2022/04/22 00:48:35;;;;;;;;;4.00;4.00;;;;;18.16;37.34;100077.78;5082076;27;45257;-82
2022/04/22 00:51:02;;;;;;;;;5.00;5.00;;;;;17.99;37.54;100052.25;5101137;27;45591;-82
2022/04/22 00:53:28;;;;;;;;;5.67;5.67;;;;;17.97;37.26;100051.53;5100759;27;46430;-82
2022/04/22 00:55:55;;;;;;;;;4.00;4.00;;;;;18.10;37.49;100076.47;5099738;27;45394;-82
2022/04/22 00:58:21;;;;;;;;;5.00;5.00;;;;;18.07;37.69;100074.88;5093534;27;45433;-82
2022/04/22 01:00:46;;;;;;;;;5.00;5.00;;;;;17.79;37.93;100033.19;5062314;27;45418;-82
2022/04/22 01:03:11;;;;;;;;;5.00;5.00;;;;;18.04;37.79;100074.28;5079959;28;45434;-82
2022/04/22 01:11:17;;;;;;;;;5.33;5.33;;;;;17.69;38.16;100025.03;5057857;28;45414;-83
2022/04/22 01:13:43;;;;;;;;;6.00;5.00;;;;;17.60;38.26;100011.50;5031530;28;46966;-82
2022/04/22 01:16:09;;;;;;;;;5.00;4.67;;;;;17.68;38.38;100023.34;5037253;28;45550;-82
2022/04/22 01:18:35;;;;;;;;;6.00;4.00;;;;;17.63;38.87;100012.13;5037240;28;45287;-82
2022/04/22 01:21:01;;;;;;;;;6.00;6.00;;;;;17.54;38.60;100002.13;5037321;28;45382;-82
2022/04/22 01:23:27;;;;;;;;;6.00;6.00;;;;;17.85;38.61;100053.44;5036980;28;46332;-82
2022/04/22 01:25:53;;;;;;;;;5.00;5.00;;;;;17.77;38.44;100048.69;5043618;28;45369;-83
2022/04/22 01:28:19;;;;;;;;;5.33;4.67;;;;;17.79;38.50;100052.06;5020328;28;45345;-82
2022/04/22 01:30:45;;;;;;;;;3.00;3.00;;;;;17.44;38.46;99999.34;5036532;28;45628;-83
2022/04/22 01:33:10;;;;;;;;;6.67;5.00;;;;;17.59;38.76;100025.97;5028193;28;48431;-82
2022/04/22 01:35:35;;;;;;;;;3.00;3.00;;;;;17.63;39.02;100030.97;5034967;28;45386;-83
2022/04/22 01:38:01;;;;;;;;;8.33;6.00;;;;;17.64;38.93;100031.81;5041860;28;45526;-82
2022/04/22 01:40:26;;;;;;;;;5.67;4.00;;;;;17.42;38.56;100003.13;5037166;28;45589;-83
2022/04/22 01:42:51;;;;;;;;;4.00;4.00;;;;;17.24;38.89;99975.91;5056052;28;45547;-83
2022/04/22 01:45:17;;;;;;;;;5.67;5.67;;;;;17.38;38.77;99999.00;5071038;28;45489;-82
2022/04/22 01:47:43;;;;;;;;;5.67;5.67;;;;;17.18;38.98;99962.97;5079729;28;45403;-83
2022/04/22 01:50:08;;;;;;;;;6.00;4.33;;;;;17.61;39.04;100034.78;5063501;27;45563;-83
2022/04/22 01:52:39;;;;;;;;;4.33;4.33;;;;;17.43;39.23;100016.47;5099712;27;45432;-83
2022/04/22 01:55:05;;;;;;;;;5.33;4.00;;;;;17.49;39.22;100025.91;5078592;27;45894;-83
2022/04/22 01:57:30;;;;;;;;;5.33;5.33;;;;;17.48;39.16;100024.19;5108409;27;45825;-82
2022/04/22 01:59:58;;;;;;;;;5.00;5.00;;;;;17.33;39.20;99994.00;5081779;27;45494;-82
2022/04/22 02:02:23;;;;;;;;;5.00;5.00;;;;;17.45;38.95;100019.91;5092943;27;45403;-82
2022/04/22 02:04:48;;;;;;;;;5.33;5.33;;;;;17.43;38.88;100021.03;5087179;27;45444;-82
2022/04/22 02:07:14;;;;;;;;;8.33;6.67;;;;;17.37;39.39;100008.06;5098542;27;45449;-82
2022/04/22 02:09:39;;;;;;;;;5.00;5.00;;;;;17.43;39.05;100027.25;5099765;27;45364;-82
2022/04/22 02:12:06;;;;;;;;;5.33;4.33;;;;;17.34;39.01;100005.63;5099276;27;46066;-82
2022/04/22 02:14:32;;;;;;;;;5.00;5.00;;;;;17.45;39.25;100024.44;5080700;27;45398;-82
2022/04/22 02:16:57;;;;;;;;;5.33;5.33;;;;;17.42;39.27;100022.00;5099522;27;45412;-82
2022/04/22 02:19:23;;;;;;;;;4.67;4.67;;;;;17.19;39.51;99989.78;5086405;27;45312;-82
2022/04/22 02:21:51;;;;;;;;;4.00;4.00;;;;;17.39;39.05;100028.50;5060637;28;47164;-82
2022/04/22 02:24:17;;;;;;;;;4.00;4.00;;;;;17.29;39.24;100011.41;5078013;28;45545;-82
2022/04/22 02:29:26;;;;;;;;;5.00;5.00;;;;;17.32;39.37;100021.06;5079201;27;45373;-82
2022/04/22 02:31:53;;;;;;;;;5.00;4.33;;;;;17.30;39.67;100015.78;5085911;27;45390;-83
2022/04/22 02:34:21;;;;;;;;;5.67;5.33;;;;;16.92;39.78;99959.75;5077379;27;45710;-82
2022/04/22 02:36:47;;;;;;;;;5.00;5.00;;;;;17.27;39.64;100016.91;5061024;27;45389;-82
2022/04/22 02:39:12;;;;;;;;;6.00;6.00;;;;;17.20;39.26;100004.94;5060679;27;45407;-82
2022/04/22 02:47:06;;;;;;;;;4.33;4.33;;;;;16.79;39.75;99944.63;5080493;27;45409;-82
2022/04/22 02:49:31;;;;;;;;;5.00;4.67;;;;;16.87;39.52;99957.44;5095092;27;45396;-83
2022/04/22 02:51:56;;;;;;;;;5.00;5.00;;;;;17.16;39.51;100014.28;5085569;27;45578;-82
2022/04/22 02:54:22;;;;;;;;;7.33;6.00;;;;;16.76;39.79;99952.06;5093295;27;45451;-83
2022/04/22 02:56:50;;;;;;;;;4.00;4.00;;;;;16.97;39.70;99987.16;5098377;27;45896;-82
2022/04/22 02:59:17;;;;;;;;;3.67;3.67;;;;;17.02;39.84;99988.50;5088824;27;45809;-82
2022/04/22 03:01:43;;;;;;;;;5.00;5.00;;;;;16.96;39.96;99985.44;5083158;27;45934;-82
2022/04/22 03:04:09;;;;;;;;;3.00;3.00;;;;;16.86;39.91;99974.59;5079952;27;45410;-82
2022/04/22 03:06:34;;;;;;;;;5.00;4.33;;;;;16.84;40.03;99968.47;5097847;27;45370;-82
2022/04/22 03:09:00;;;;;;;;;5.00;4.67;;;;;17.04;40.06;99997.31;5089036;27;45525;-82
2022/04/22 03:11:25;;;;;;;;;5.67;5.67;;;;;16.67;39.94;99948.31;5076808;27;48205;-82
2022/04/22 03:13:51;;;;;;;;;5.33;5.33;;;;;16.71;39.96;99954.28;5083837;27;45389;-83
2022/04/22 03:16:25;;;;;;;;;5.33;5.33;;;;;16.77;39.88;99968.09;5089556;27;45318;-83
2022/04/22 03:18:50;;;;;;;;;7.33;4.00;;;;;16.62;40.17;99945.09;5084748;27;45593;-82
2022/04/22 03:21:17;;;;;;;;;4.67;4.67;;;;;16.87;40.26;100004.03;5094357;27;46330;-82
2022/04/22 03:23:42;;;;;;;;;5.67;5.67;;;;;16.61;40.20;99951.47;5080933;27;45533;-82
2022/04/22 03:26:08;;;;;;;;;6.00;4.67;;;;;16.69;40.33;99975.91;5087085;27;45322;-82
2022/04/22 03:28:33;;;;;;;;;4.00;4.00;;;;;16.69;40.52;99978.59;5087138;27;45238;-82
2022/04/22 03:30:58;;;;;;;;;9.67;5.00;;;;;16.71;40.38;99982.03;5092151;27;46299;-82
2022/04/22 03:33:24;;;;;;;;;6.00;6.00;;;;;16.67;40.31;99978.75;5080421;27;45509;-82
2022/04/22 03:35:50;;;;;;;;;10.33;7.67;;;;;16.65;40.30;99982.56;5093630;27;45613;-82
2022/04/22 03:38:16;;;;;;;;;10.67;8.00;;;;;16.59;40.56;99966.88;5085746;27;45558;-82
2022/04/22 03:40:41;;;;;;;;;16.67;16.00;;;;;16.71;40.55;99994.63;5096544;27;45671;-82
2022/04/22 03:43:07;;;;;;;;;20.33;18.33;;;;;16.63;40.59;99984.50;5096078;27;45443;-82
2022/04/22 03:45:32;;;;;;;;;18.00;16.33;;;;;16.56;40.82;99972.53;5077278;28;45544;-83
2022/04/22 03:47:58;;;;;;;;;19.00;18.00;;;;;16.48;40.92;99969.59;5059994;27;45479;-82
2022/04/22 03:50:25;;;;;;;;;23.67;20.00;;;;;16.30;40.84;99931.63;5076787;28;45531;-82
2022/04/22 03:52:50;;;;;;;;;27.33;26.67;;;;;16.53;41.00;99979.03;5077270;28;45305;-82
2022/04/22 03:55:16;;;;;;;;;25.67;24.67;;;;;16.62;40.91;99988.16;5090192;27;45433;-82
2022/04/22 04:00:25;;;;;;;;;30.00;28.00;;;;;16.45;41.19;99973.38;5077044;28;45818;-82
2022/04/22 04:02:50;;;;;;;;;33.25;32.00;;;;;16.55;41.19;99984.25;5077397;28;45720;-82
2022/04/22 04:05:15;;;;;;;;;36.25;31.25;;;;;16.53;41.18;99991.59;5076079;28;45535;-82
2022/04/22 04:07:41;;;;;;;;;47.00;35.25;;;;;16.46;41.53;99983.19;5077257;28;45705;-82
2022/04/22 04:18:19;;;;;;;;;43.25;35.50;;;;;16.27;41.05;99964.09;5096944;27;45361;-82
2022/04/22 04:23:36;;;;;;;;;39.33;35.00;;;;;16.30;41.67;99974.63;4994485;28;45620;-82
2022/04/22 04:26:01;;;;;;;;;32.67;30.67;;;;;16.31;41.58;99985.25;4994599;28;45533;-82
2022/04/22 04:28:27;;;;;;;;;37.33;32.33;;;;;16.29;41.73;99975.59;4994684;28;45630;-82
2022/04/22 04:30:54;;;;;;;;;32.33;28.67;;;;;16.10;41.70;99952.00;4994409;28;45928;-82
2022/04/22 04:33:20;;;;;;;;;30.33;28.00;;;;;16.17;41.67;99966.69;4994377;28;45729;-82
2022/04/22 04:35:47;;;;;;;;;35.33;30.67;;;;;16.17;41.78;99970.22;4993270;28;45561;-83
2022/04/22 04:38:13;;;;;;;;;32.33;29.00;;;;;16.11;42.04;99962.66;4994508;28;45484;-82
2022/04/22 04:40:39;;;;;;;;;30.33;25.67;;;;;15.97;42.29;99944.09;4993254;28;45537;-82
2022/04/22 04:43:05;;;;;;;;;25.33;24.33;;;;;16.17;42.13;99974.75;4994302;28;45454;-82
2022/04/22 04:45:32;;;;;;;;;25.67;23.67;;;;;16.15;42.22;99974.00;4994351;28;45535;-82
2022/04/22 04:47:57;;;;;;;;;28.67;25.33;;;;;15.92;42.33;99944.44;4994583;28;45605;-82
2022/04/22 04:50:23;;;;;;;;;25.00;23.33;;;;;16.10;42.53;99974.38;4993063;28;45460;-82
2022/04/22 04:52:48;;;;;;;;;25.00;22.67;;;;;15.93;42.29;99945.28;4993844;28;45460;-82
2022/04/22 04:55:14;;;;;;;;;23.00;22.33;;;;;15.86;42.42;99934.16;4994396;28;45584;-82
2022/04/22 04:57:41;;;;;;;;;23.00;23.00;;;;;15.97;42.61;99949.47;4994506;28;45437;-83
2022/04/22 05:00:07;;;;;;;;;22.00;21.00;;;;;15.87;42.48;99932.31;5015419;27;47197;-82
2022/04/22 05:02:34;;;;;;;;;19.00;16.67;;;;;15.96;42.74;99953.09;5070199;28;45451;-88
2022/04/22 05:05:01;;;;;;;;;21.00;20.00;;;;;16.09;42.60;99961.91;5082990;27;45488;-88
2022/04/22 05:07:26;;;;;;;;;24.00;19.67;;;;;15.91;42.71;99933.81;5100784;27;45452;-88
2022/04/22 05:09:52;;;;;;;;;29.67;24.00;;;;;16.03;42.73;99963.25;5098612;27;46474;-88
2022/04/22 05:12:17;;;;;;;;;26.33;22.00;;;;;15.73;42.94;99917.28;5079699;27;45448;-88
2022/04/22 05:14:46;;;;;;;;;24.67;23.00;;;;;15.95;42.84;99952.25;5077917;27;45417;-88
2022/04/22 05:17:11;;;;;;;;;26.00;23.67;;;;;15.80;43.14;99931.94;5098035;27;45407;-88
2022/04/22 05:19:37;;;;;;;;;23.67;22.33;;;;;15.41;43.22;99862.41;5099039;27;46031;-88
2022/04/22 05:22:02;;;;;;;;;27.67;23.67;;;;;15.79;43.14;99923.03;5083149;27;45423;-88
2022/04/22 05:24:27;;;;;;;;;23.00;22.00;;;;;15.90;43.11;99948.22;5116094;27;45325;-87
2022/04/22 05:26:53;;;;;;;;;23.67;20.33;;;;;15.68;43.37;99912.25;5108360;27;45353;-87
2022/04/22 05:34:54;;;;;;;;;30.33;29.00;;;;;15.74;43.26;99927.94;5102965;27;45582;-87
2022/04/22 05:37:20;;;;;;;;;29.67;28.67;;;;;15.97;43.37;99957.53;5091594;27;45423;-88
2022/04/22 05:39:46;;;;;;;;;28.67;28.33;;;;;15.92;43.71;99949.81;5101229;27;48624;-87
2022/04/22 05:42:12;;;;;;;;;33.33;30.67;;;;;15.90;43.69;99946.41;5117839;27;45610;-87
2022/04/22 05:44:38;;;;;;;;;29.00;29.00;;;;;15.95;43.53;99962.16;5091783;27;45583;-89
2022/04/22 05:47:07;;;;;;;;;32.33;26.33;;;;;15.98;43.79;99959.22;5087170;27;45632;-88
2022/04/22 05:49:33;;;;;;;;;35.33;31.33;;;;;15.41;43.97;99872.31;5079839;28;45583;-88
2022/04/22 05:51:58;;;;;;;;;33.67;30.00;;;;;15.98;43.78;99965.44;5063285;28;45444;-87
2022/04/22 05:54:24;;;;;;;;;35.00;31.67;;;;;15.53;43.99;99887.44;5075857;27;45466;-85
2022/04/22 05:56:49;;;;;;;;;31.67;30.33;;;;;16.01;43.85;99967.91;5081563;27;45488;-85
2022/04/22 05:59:14;;;;;;;;;33.67;32.33;;;;;16.05;43.92;99984.63;5090581;27;46289;-86
2022/04/22 06:01:41;;;;;;;;;33.67;32.00;;;;;15.38;43.64;99857.28;5094464;27;45345;-87
2022/04/22 06:04:06;;;;;;;;;37.67;32.33;;;;;15.57;44.20;99902.34;5101842;27;45377;-87
2022/04/22 06:06:31;;;;;;;;;45.67;35.00;;;;;15.55;43.76;99885.50;5084315;27;45491;-87
2022/04/22 06:11:40;;;;;;;;;34.67;31.00;;;;;15.30;43.89;99840.91;5098879;27;45287;-86
2022/04/22 06:14:06;;;;;;;;;36.00;31.67;;;;;16.16;43.88;99981.13;5101623;27;45380;-87
2022/04/22 06:16:31;;;;;;;;;37.33;32.67;;;;;15.88;43.73;99939.44;5098891;27;45511;-90
2022/04/22 06:18:56;;;;;;;;;33.67;29.00;;;;;15.92;43.94;99933.69;5079522;27;46924;-86
2022/04/22 06:21:22;;;;;;;;;32.33;29.67;;;;;15.70;43.87;99896.03;5101834;27;56304;-87
2022/04/22 06:23:47;;;;;;;;;33.67;31.00;;;;;15.95;43.62;99919.16;5102147;27;45410;-84
2022/04/22 06:26:13;;;;;;;;;34.00;32.00;;;;;15.81;43.71;99901.44;5086315;27;45630;-85
2022/04/22 06:28:38;;;;;;;;;34.33;32.00;;;;;16.13;43.85;99944.56;5090512;27;46200;-83
2022/04/22 06:31:03;;;;;;;;;33.00;29.00;;;;;16.24;43.92;99968.75;5096449;27;45336;-84
2022/04/22 06:33:29;;;;;;;;;31.00;26.67;;;;;16.18;43.83;99944.22;5089539;27;45409;-84
2022/04/22 06:35:57;;;;;;;;;27.33;25.00;;;;;16.24;43.69;99952.63;5090892;27;45471;-84
2022/04/22 06:38:24;;;;;;;;;26.00;25.00;;;;;16.38;43.68;99969.47;5096152;27;46182;-84
2022/04/22 06:46:18;;;;;;;;;23.67;21.33;;;;;16.41;43.74;99943.22;5083242;27;45397;-83
2022/04/22 06:48:43;;;;;;;;;19.00;19.00;;;;;16.55;43.53;99960.94;5091897;27;45668;-86
2022/04/22 06:51:10;;;;;;;;;24.00;21.00;;;;;16.41;43.68;99945.03;5068822;27;45509;-84
2022/04/22 06:53:36;;;;;;;;;17.67;16.67;;;;;16.57;43.70;99960.78;5084970;27;45384;-84
2022/04/22 06:56:04;;;;;;;;;19.33;16.67;;;;;16.48;43.55;99940.84;5085873;27;45592;-84
2022/04/22 06:58:37;;;;;;;;;17.00;15.33;;;;;16.40;43.53;99916.44;5081469;27;45492;-84
2022/04/22 07:01:03;;;;;;;;;16.67;16.67;;;;;16.68;43.38;99964.31;5088278;27;45599;-83
2022/04/22 07:03:29;;;;;;;;;19.33;17.67;;;;;16.39;43.68;99920.97;5087033;27;45432;-83
2022/04/22 07:05:55;;;;;;;;;15.67;11.67;;;;;16.38;43.94;99907.63;5085042;27;45465;-84
2022/04/22 07:08:20;;;;;;;;;11.33;10.67;;;;;16.52;43.80;99922.63;5085481;27;45279;-84
2022/04/22 07:10:48;;;;;;;;;12.33;11.67;;;;;16.81;43.80;99963.31;5095166;27;45468;-83
2022/04/22 07:13:16;;;;;;;;;14.67;13.00;;;;;16.78;43.34;99942.88;5064317;27;45494;-83
2022/04/22 07:15:45;;;;;;;;;14.67;11.00;;;;;16.82;43.65;99933.59;5074708;27;45277;-82
2022/04/22 07:18:10;;;;;;;;;12.00;9.67;;;;;17.02;43.66;99944.53;5081994;27;46188;-84
2022/04/22 07:20:37;;;;;;;;;12.00;12.00;;;;;17.06;43.28;99943.31;5079753;27;45528;-84
2022/04/22 07:23:02;;;;;;;;;9.67;9.67;;;;;17.03;43.43;99935.50;5082588;27;45435;-86
2022/04/22 07:25:28;;;;;;;;;11.00;10.00;;;;;17.11;43.55;99945.63;5081783;27;45762;-85
2022/04/22 07:27:54;;;;;;;;;9.67;9.67;;;;;16.80;43.35;99886.28;5081947;27;45435;-87
2022/04/22 07:30:21;;;;;;;;;10.33;10.33;;;;;16.92;43.59;99909.47;5083207;27;45508;-85
2022/04/22 07:32:48;;;;;;;;;8.67;7.33;;;;;17.27;42.70;99949.56;5067863;27;45472;-84
2022/04/22 07:35:15;;;;;;;;;12.00;10.67;;;;;17.12;42.99;99928.50;5086886;27;45535;-84
2022/04/22 07:37:47;;;;;;;;;8.00;7.67;;;;;17.09;42.78;99916.09;5078344;27;45672;-84
2022/04/22 07:40:14;;;;;;;;;10.00;9.33;;;;;17.30;42.64;99948.44;5090873;27;45903;-84
2022/04/22 07:48:21;;;;;;;;;8.67;8.67;;;;;17.30;42.44;99910.75;5037488;28;45452;-85
2022/04/22 07:50:48;;;;;;;;;11.00;9.67;;;;;17.55;42.29;99941.00;5034309;28;45795;-86
2022/04/22 07:53:15;;;;;;;;;10.00;6.33;;;;;17.70;42.06;99943.22;5045852;28;45310;-85
2022/04/22 07:55:40;;;;;;;;;10.33;8.67;;;;;17.64;41.48;99915.94;5032574;28;45588;-90
2022/04/22 07:58:06;;;;;;;;;10.67;9.00;;;;;17.88;41.49;99939.94;5042534;28;45953;-85
2022/04/22 08:00:32;;;;;;;;;9.33;7.00;;;;;17.72;41.32;99899.94;5032778;28;45370;-86
2022/04/22 08:02:57;;;;;;;;;11.00;7.67;;;;;17.71;41.19;99882.94;5036148;28;45516;-88
2022/04/22 08:05:23;;;;;;;;;9.33;9.33;;;;;18.18;41.08;99938.25;5036411;28;45345;-83
2022/04/22 08:07:48;;;;;;;;;8.67;8.67;;;;;18.29;40.65;99948.94;5046799;28;45536;-82
2022/04/22 08:10:14;;;;;;;;;6.33;5.67;;;;;18.35;39.90;99942.97;5051301;28;45432;-80
2022/04/22 08:12:39;;;;;;;;;9.67;7.67;;;;;18.28;39.83;99929.19;5038983;28;45416;-83
2022/04/22 08:15:05;;;;;;;;;11.67;6.33;;;;;18.13;39.92;99888.25;5049890;28;45684;-82
2022/04/22 08:17:37;;;;;;;;;8.00;8.00;;;;;18.32;39.63;99910.88;5046266;28;45571;-83
2022/04/22 08:20:05;;;;;;;;;9.33;7.00;;;;;18.66;39.90;99941.09;5035658;28;45524;-84
2022/04/22 08:22:31;;;;;;;;;8.00;8.00;;;;;18.66;39.54;99895.22;5067326;27;45390;-85
2022/04/22 08:24:57;;;;;;;;;7.67;7.00;;;;;19.26;38.63;99941.03;5081667;27;45389;-84
2022/04/22 08:27:24;;;;;;;;;6.67;6.67;;;;;19.96;37.48;99932.69;5082615;27;46073;-83
2022/04/22 08:29:49;;;;;;;;;7.00;7.00;;;;;20.70;36.41;99901.13;5084900;27;45411;-83
2022/04/22 08:32:14;;;;;;;;;7.33;7.33;;;;;21.71;35.26;99913.38;5068950;27;45265;-83
2022/04/22 08:34:40;;;;;;;;;7.00;7.00;;;;;22.61;34.28;99918.41;5085340;27;45310;-85
2022/04/22 08:37:06;;;;;;;;;5.33;5.33;;;;;23.14;33.31;99917.19;5090054;27;45618;-86
2022/04/22 08:39:31;;;;;;;;;6.33;6.33;;;;;23.87;32.10;99915.47;5076324;27;47939;-84
2022/04/22 08:42:00;;;;;;;;;7.00;6.00;;;;;24.67;31.65;99909.03;5085768;27;45535;-84
2022/04/22 08:44:26;;;;;;;;;6.33;4.67;;;;;25.13;30.20;99881.81;5095693;27;45271;-85
2022/04/22 08:52:22;;;;;;;;;6.00;6.00;;;;;26.45;28.62;99895.81;5088076;27;45522;-85
2022/04/22 08:54:49;;;;;;;;;6.67;5.33;;;;;26.64;28.18;99883.47;5095766;27;45511;-84
2022/04/22 08:57:15;;;;;;;;;5.33;5.33;;;;;26.88;27.70;99892.38;5072641;27;47654;-84
2022/04/22 08:59:41;;;;;;;;;6.00;5.67;;;;;26.74;27.35;99869.50;5089595;27;45391;-83
2022/04/22 09:02:07;;;;;;;;;5.33;5.33;;;;;26.78;26.27;99880.88;5070926;27;45495;-85
2022/04/22 09:04:32;;;;;;;;;5.33;5.33;;;;;26.66;26.99;99896.94;5084243;27;45383;-84
2022/04/22 09:06:59;;;;;;;;;7.00;6.00;;;;;26.59;26.62;99887.81;5080715;27;45368;-85
2022/04/22 09:09:24;;;;;;;;;5.67;5.67;;;;;26.52;26.61;99896.75;5081723;27;45447;-84
2022/04/22 09:11:51;;;;;;;;;4.67;4.67;;;;;26.64;26.04;99897.13;5089990;27;45311;-85
2022/04/22 09:14:19;;;;;;;;;6.00;4.00;;;;;26.61;25.82;99892.06;5092400;27;45420;-82
2022/04/22 09:16:45;;;;;;;;;5.67;5.67;;;;;26.51;26.06;99889.59;5071253;27;47124;-85
2022/04/22 09:19:11;;;;;;;;;3.00;3.00;;;;;26.44;26.57;99864.06;5088134;27;45298;-85
2022/04/22 09:21:38;;;;;;;;;7.00;7.00;;;;;26.60;26.46;99873.97;5093878;27;45419;-84
2022/04/22 09:24:14;;;;;;;;;5.00;3.00;;;;;26.61;25.42;99867.44;5078677;27;45527;-83
2022/04/22 09:26:40;;;;;;;;;5.33;4.00;;;;;26.82;26.04;99868.53;5082166;27;46654;-85
2022/04/22 09:29:06;;;;;;;;;5.00;5.00;;;;;27.16;25.05;99878.75;5069523;27;45654;-83
2022/04/22 09:31:46;;;;;;;;;5.00;5.00;;;;;27.32;25.60;99878.50;5089055;27;45624;-82
2022/04/22 09:34:12;;;;;;;;;4.00;4.00;;;;;27.52;25.51;99855.91;5096340;27;45457;-83
2022/04/22 09:45:03;;;;;;;;;6.00;5.00;;;;;28.54;23.75;99860.75;5086247;27;45451;-83
2022/04/22 09:47:33;;;;;;;;;4.33;4.33;;;;;28.57;23.63;99843.88;5090718;27;45564;-85
2022/04/22 09:49:59;;;;;;;;;3.33;3.33;;;;;28.71;22.73;99857.63;5089119;27;45465;-84
2022/04/22 09:52:30;;;;;;;;;4.00;4.00;;;;;28.36;23.27;99800.13;5089884;27;45507;-84
2022/04/22 09:55:24;;;;;;;;;6.00;5.00;;;;;28.67;23.82;99806.97;5077465;27;45423;-85
2022/04/22 09:57:58;;;;;;;;;5.33;4.33;;;;;28.80;22.31;99829.78;5085544;27;45342;-84
2022/04/22 10:00:26;;;;;;;;;2.00;2.00;;;;;28.98;23.15;99848.34;5089829;27;45415;-86
2022/04/22 10:02:53;;;;;;;;;3.00;3.00;;;;;29.15;22.84;99857.09;5096274;27;45498;-83
2022/04/22 10:05:23;;;;;;;;;4.33;3.67;;;;;29.30;22.16;99859.63;5092421;27;45386;-83
2022/04/22 10:07:55;;;;;;;;;4.00;4.00;;;;;29.11;21.53;99839.34;5080478;27;45517;-84
2022/04/22 10:10:35;;;;;;;;;3.00;3.00;;;;;28.92;21.53;99810.81;5088199;27;45456;-83
2022/04/22 10:13:03;;;;;;;;;4.67;3.67;;;;;29.12;22.22;99838.28;5089323;27;45432;-79
2022/04/22 10:15:33;;;;;;;;;7.33;5.00;;;;;29.09;22.80;99814.00;5095379;27;45542;-78
2022/04/22 10:17:59;;;;;;;;;5.67;3.33;;;;;29.48;21.74;99839.75;5086586;27;46079;-79
2022/04/22 10:20:26;;;;;;;;;4.67;4.67;;;;;29.65;21.77;99841.00;5065000;27;45425;-79
2022/04/22 10:22:51;;;;;;;;;3.33;3.33;;;;;29.75;21.18;99810.34;5083727;27;45666;-79
2022/04/22 10:25:17;;;;;;;;;4.00;4.00;;;;;29.93;21.20;99815.19;5084018;27;45571;-79
2022/04/22 10:27:44;;;;;;;;;4.67;4.67;;;;;30.29;21.10;99828.38;5086866;27;45475;-87
2022/04/22 10:30:11;;;;;;;;;4.33;4.33;;;;;30.61;21.04;99811.09;5087084;27;45478;-86
2022/04/22 10:32:41;;;;;;;;;1.67;1.67;;;;;31.32;20.01;99783.22;5070633;27;45439;-88
2022/04/22 10:35:08;;;;;;;;;1.67;1.67;;;;;32.42;19.13;99828.44;5077352;27;45453;-86
2022/04/22 10:37:37;;;;;;;;;3.00;3.00;;;;;32.20;18.74;99775.72;5086395;27;45740;-87
2022/04/22 10:40:03;;;;;;;;;3.00;3.00;;;;;32.84;17.92;99791.78;5090999;27;45535;-87
2022/04/22 10:42:34;;;;;;;;;3.00;3.00;;;;;32.96;18.28;99800.94;5074755;27;45420;-86
2022/04/22 10:47:51;;;;;;;;;3.00;3.00;;;;;33.09;17.91;99803.50;5089975;27;45894;-85
2022/04/22 10:50:29;;;;;;;;;2.33;2.00;;;;;33.03;17.54;99825.66;5067352;28;45464;-85
2022/04/22 10:52:56;;;;;;;;;6.00;5.00;;;;;32.83;18.25;99799.22;5090606;27;45575;-85
2022/04/22 10:55:21;;;;;;;;;4.67;4.00;;;;;32.48;18.00;99728.19;5079961;27;45497;-85
2022/04/22 10:57:50;;;;;;;;;4.00;4.00;;;;;33.49;17.65;99824.91;5090119;27;46244;-84
2022/04/22 11:00:17;;;;;;;;;4.67;3.67;;;;;34.00;16.93;99817.78;5089962;27;45464;-84
2022/04/22 11:02:43;;;;;;;;;4.00;4.00;;;;;34.53;16.87;99815.00;5067997;27;45385;-84
2022/04/22 11:05:24;;;;;;;;;4.00;4.00;;;;;35.07;16.04;99804.34;5071276;27;45455;-86
2022/04/22 11:07:53;;;;;;;;;3.33;3.33;;;;;35.48;16.16;99805.03;5071987;27;47204;-84
2022/04/22 11:10:20;;;;;;;;;5.00;3.33;;;;;35.91;15.74;99784.84;5083292;27;45378;-86
2022/04/22 11:12:59;;;;;;;;;3.00;3.00;;;;;36.54;16.06;99792.81;5072576;27;45614;-87
2022/04/22 11:15:42;;;;;;;;;2.00;2.00;;;;;37.02;14.75;99795.78;5090815;27;45523;-87
2022/04/22 11:18:08;;;;;;;;;2.00;2.00;;;;;37.06;14.52;99753.34;5084195;27;46448;-86
2022/04/22 11:20:58;;;;;;;;;3.00;2.00;;;;;37.07;14.37;99795.88;5074108;27;45837;-89
2022/04/22 11:23:23;;;;;;;;;1.67;1.33;;;;;36.25;15.28;99793.06;5093439;27;45676;-89
2022/04/22 11:25:51;;;;;;;;;2.67;2.67;;;;;35.42;14.87;99761.69;5088684;27;45507;-87
2022/04/22 11:28:19;;;;;;;;;1.67;1.67;;;;;35.14;15.88;99782.88;5080809;27;46653;-85
2022/04/22 11:30:44;;;;;;;;;2.00;2.00;;;;;34.90;16.04;99796.03;5082507;27;45529;-86
2022/04/22 11:33:22;;;;;;;;;3.00;3.00;;;;;33.98;17.09;99690.00;5068633;27;45544;-82
2022/04/22 11:35:57;;;;;;;;;4.00;4.00;;;;;33.87;17.11;99682.56;5084668;27;45505;-82
2022/04/22 11:38:23;;;;;;;;;1.33;1.33;;;;;34.22;17.17;99751.59;5081605;27;46036;-82
2022/04/22 11:40:51;;;;;;;;;3.00;2.67;;;;;33.81;17.21;99697.38;5076065;27;45998;-82
2022/04/22 11:43:18;;;;;;;;;3.00;3.00;;;;;34.09;17.11;99795.28;5087856;27;45492;-82
2022/04/22 11:45:49;;;;;;;;;3.00;2.33;;;;;33.12;17.39;99676.00;5087747;27;45475;-82
2022/04/22 11:48:18;;;;;;;;;3.00;3.00;;;;;33.03;17.63;99663.59;5084424;27;46585;-82
2022/04/22 11:50:45;;;;;;;;;1.33;1.33;;;;;33.64;16.83;99791.28;5063047;28;45910;-82
2022/04/22 11:53:15;;;;;;;;;2.67;2.67;;;;;33.37;17.19;99766.88;5064805;27;45742;-82
2022/04/22 11:55:43;;;;;;;;;2.67;1.67;;;;;33.40;17.40;99773.84;5072104;27;45544;-82
2022/04/22 11:58:14;;;;;;;;;1.33;1.33;;;;;32.92;17.61;99726.03;5074681;27;46332;-81
2022/04/22 12:06:13;;;;;;;;;3.33;3.33;;;;;32.48;17.69;99743.91;5069661;28;45443;-85
2022/04/22 12:08:54;;;;;;;;;3.00;3.00;;;;;31.73;17.91;99681.72;5071024;28;45638;-86
2022/04/22 12:11:21;;;;;;;;;3.33;3.00;;;;;31.70;18.30;99685.81;5071177;27;45472;-83
2022/04/22 12:13:48;;;;;;;;;1.67;1.67;;;;;31.49;18.68;99684.34;5071257;27;45507;-85
2022/04/22 12:16:21;;;;;;;;;2.33;2.00;;;;;31.34;18.27;99670.09;5071546;28;45285;-85
2022/04/22 12:18:48;;;;;;;;;2.67;2.67;;;;;31.54;18.37;99725.00;5070312;28;47139;-85
2022/04/22 12:21:34;;;;;;;;;2.67;2.67;;;;;31.07;18.45;99681.41;5070826;27;45444;-85
2022/04/22 12:24:02;;;;;;;;;2.33;2.33;;;;;31.30;18.62;99727.56;5068631;27;45700;-86
2022/04/22 12:26:31;;;;;;;;;2.00;2.00;;;;;30.89;18.84;99704.22;5063878;27;45660;-86
2022/04/22 12:28:57;;;;;;;;;2.67;2.67;;;;;31.08;18.72;99764.81;5064564;27;46158;-85
2022/04/22 12:31:24;;;;;;;;;3.00;2.67;;;;;30.95;19.34;99757.50;5069285;27;45472;-84
2022/04/22 12:34:04;;;;;;;;;4.00;2.00;;;;;30.82;19.59;99754.84;5065755;27;45558;-84
2022/04/22 12:36:34;;;;;;;;;2.33;2.00;;;;;30.66;19.52;99735.06;5068789;27;45558;-84